Time;durP1;ratioP1;P1;durP2;ratioP2;P2;SDS_P1;SDS_P2;PMS_P1;PMS_P2;Temp;Humidity;BMP_temperature;BMP_pressure;BME280_temperature;BME280_humidity;BME280_pressure;Samples;Min_cycle;Max_cycle;Signal;HPM_P1;HPM_P2
2023/02/04 00:01:12;;;;;;;;;;;;;;;;;;5034928;28;20047;-75
2023/02/04 00:03:37;;;;;;;;;;;;;;;;;;5034871;28;19952;-76
2023/02/04 00:06:03;;;;;;;;;;;;;;;;;;5035025;28;19909;-75
2023/02/04 00:08:29;;;;;;;;;;;;;;;;;;5033469;28;19910;-76
2023/02/04 00:10:55;;;;;;;;;;;;;;;;;;5034790;28;19909;-75
2023/02/04 00:13:21;;;;;;;;;;;;;;;;;;5034728;28;20269;-74
2023/02/04 00:15:47;;;;;;;;;;;;;;;;;;5034198;28;20377;-75
2023/02/04 00:18:13;;;;;;;;;;;;;;;;;;5035039;28;19940;-75
2023/02/04 00:20:39;;;;;;;;;;;;;;;;;;5034468;28;20335;-74
2023/02/04 00:23:05;;;;;;;;;;;;;;;;;;5034774;28;20297;-74
2023/02/04 00:25:31;;;;;;;;;;;;;;;;;;5033177;28;20378;-75
2023/02/04 00:27:57;;;;;;;;;;;;;;;;;;5034395;28;20404;-76
2023/02/04 00:30:22;;;;;;;;;;;;;;;;;;5034807;28;19909;-75
2023/02/04 00:32:53;;;;;;;;;;;;;;;;;;5034634;28;19910;-75
2023/02/04 00:35:19;;;;;;;;;;;;;;;;;;5034273;28;19909;-74
2023/02/04 00:37:45;;;;;;;;;;;;;;;;;;5034235;28;19932;-76
2023/02/04 00:40:11;;;;;;;;;;;;;;;;;;5034267;28;20369;-75
2023/02/04 00:42:37;;;;;;;;;;;;;;;;;;5034084;28;19913;-74
2023/02/04 00:45:03;;;;;;;;;;;;;;;;;;5034147;28;19931;-75
2023/02/04 00:47:28;;;;;;;;;;;;;;;;;;5034088;28;19994;-75
2023/02/04 00:49:54;;;;;;;;;;;;;;;;;;5034056;28;19913;-75
2023/02/04 00:52:20;;;;;;;;;;;;;;;;;;5034007;28;19921;-75
2023/02/04 00:54:46;;;;;;;;;;;;;;;;;;5034014;28;19920;-75
2023/02/04 00:57:12;;;;;;;;;;;;;;;;;;5033868;28;19909;-75
2023/02/04 00:59:38;;;;;;;;;;;;;;;;;;5033874;28;20284;-75
2023/02/04 01:02:04;;;;;;;;;;;;;;;;;;5032556;28;20378;-75
2023/02/04 01:04:30;;;;;;;;;;;;;;;;;;5032579;28;19920;-75
2023/02/04 01:06:56;;;;;;;;;;;;;;;;;;5033830;28;19909;-76
2023/02/04 01:09:22;;;;;;;;;;;;;;;;;;5033921;28;19910;-75
2023/02/04 01:11:48;;;;;;;;;;;;;;;;;;5033728;28;19909;-75
2023/02/04 01:14:13;;;;;;;;;;;;;;;;;;5033525;28;20016;-75
2023/02/04 01:16:39;;;;;;;;;;;;;;;;;;5033826;28;19963;-75
2023/02/04 01:19:05;;;;;;;;;;;;;;;;;;5033669;28;19916;-75
2023/02/04 01:21:31;;;;;;;;;;;;;;;;;;5033597;28;19919;-75
2023/02/04 01:23:57;;;;;;;;;;;;;;;;;;5032331;28;20047;-75
2023/02/04 01:26:23;;;;;;;;;;;;;;;;;;5033606;28;19909;-76
2023/02/04 01:28:49;;;;;;;;;;;;;;;;;;5033645;28;19913;-75
2023/02/04 01:31:15;;;;;;;;;;;;;;;;;;5033526;28;19915;-76
2023/02/04 01:33:41;;;;;;;;;;;;;;;;;;5033716;28;19944;-75
2023/02/04 01:36:07;;;;;;;;;;;;;;;;;;5033740;28;19916;-74
2023/02/04 01:38:33;;;;;;;;;;;;;;;;;;5033538;28;19909;-75
2023/02/04 01:40:59;;;;;;;;;;;;;;;;;;5033398;28;20012;-75
2023/02/04 01:43:25;;;;;;;;;;;;;;;;;;5033454;28;19916;-75
2023/02/04 01:45:51;;;;;;;;;;;;;;;;;;5033690;28;19909;-75
2023/02/04 01:48:19;;;;;;;;;;;;;;;;;;5033533;28;19909;-74
2023/02/04 01:50:45;;;;;;;;;;;;;;;;;;5033359;28;20282;-75
2023/02/04 01:53:11;;;;;;;;;;;;;;;;;;5033365;28;19921;-75
2023/02/04 01:55:36;;;;;;;;;;;;;;;;;;5033286;28;19909;-75
2023/02/04 01:58:02;;;;;;;;;;;;;;;;;;5032048;28;19909;-75
2023/02/04 02:00:28;;;;;;;;;;;;;;;;;;5032230;28;19916;-75
2023/02/04 02:02:54;;;;;;;;;;;;;;;;;;5033345;28;19975;-76
2023/02/04 02:05:20;;;;;;;;;;;;;;;;;;5033255;28;19914;-75
2023/02/04 02:07:46;;;;;;;;;;;;;;;;;;5036954;28;19963;-75
2023/02/04 02:10:12;;;;;;;;;;;;;;;;;;5037017;28;19909;-75
2023/02/04 02:12:38;;;;;;;;;;;;;;;;;;5035657;28;19945;-75
2023/02/04 02:15:04;;;;;;;;;;;;;;;;;;5035447;28;19943;-75
2023/02/04 02:17:31;;;;;;;;;;;;;;;;;;5036838;28;20288;-75
2023/02/04 02:19:57;;;;;;;;;;;;;;;;;;5037143;28;19916;-75
2023/02/04 02:22:23;;;;;;;;;;;;;;;;;;5036826;28;19913;-75
2023/02/04 02:24:49;;;;;;;;;;;;;;;;;;5036747;28;19932;-75
2023/02/04 02:27:15;;;;;;;;;;;;;;;;;;5036667;28;20362;-76
2023/02/04 02:29:41;;;;;;;;;;;;;;;;;;5036856;28;19909;-76
2023/02/04 02:32:07;;;;;;;;;;;;;;;;;;5036593;28;20316;-76
2023/02/04 02:34:33;;;;;;;;;;;;;;;;;;5035259;28;20404;-75
2023/02/04 02:36:58;;;;;;;;;;;;;;;;;;5036521;28;19927;-75
2023/02/04 02:39:24;;;;;;;;;;;;;;;;;;5036879;28;19916;-75
2023/02/04 02:41:50;;;;;;;;;;;;;;;;;;5036364;28;19917;-75
2023/02/04 02:44:16;;;;;;;;;;;;;;;;;;5035106;28;19992;-74
2023/02/04 02:46:42;;;;;;;;;;;;;;;;;;5036292;28;19948;-76
2023/02/04 02:49:08;;;;;;;;;;;;;;;;;;5036495;28;19932;-76
2023/02/04 02:51:34;;;;;;;;;;;;;;;;;;5036295;28;20281;-75
2023/02/04 02:54:00;;;;;;;;;;;;;;;;;;5036190;28;20369;-75
2023/02/04 02:56:26;;;;;;;;;;;;;;;;;;5034769;28;19916;-75
2023/02/04 02:58:52;;;;;;;;;;;;;;;;;;5036529;28;19911;-75
2023/02/04 03:01:18;;;;;;;;;;;;;;;;;;5035955;28;20015;-76
2023/02/04 03:03:44;;;;;;;;;;;;;;;;;;5036023;28;20373;-75
2023/02/04 03:06:09;;;;;;;;;;;;;;;;;;5035948;28;20391;-77
2023/02/04 03:08:35;;;;;;;;;;;;;;;;;;5036379;28;19952;-75
2023/02/04 03:11:01;;;;;;;;;;;;;;;;;;5035904;28;20373;-74
2023/02/04 03:13:27;;;;;;;;;;;;;;;;;;5034549;28;19909;-76
2023/02/04 03:15:53;;;;;;;;;;;;;;;;;;5036024;28;19921;-75
2023/02/04 03:18:19;;;;;;;;;;;;;;;;;;5034655;28;19951;-75
2023/02/04 03:20:45;;;;;;;;;;;;;;;;;;5035600;28;19913;-75
2023/02/04 03:23:11;;;;;;;;;;;;;;;;;;5035701;28;19909;-75
2023/02/04 03:25:37;;;;;;;;;;;;;;;;;;5035619;28;20001;-76
2023/02/04 03:28:03;;;;;;;;;;;;;;;;;;5035865;28;19952;-75
2023/02/04 03:30:30;;;;;;;;;;;;;;;;;;5035643;28;19910;-75
2023/02/04 03:32:56;;;;;;;;;;;;;;;;;;5035539;28;19909;-75
2023/02/04 03:35:21;;;;;;;;;;;;;;;;;;5034149;28;19909;-75
2023/02/04 03:37:47;;;;;;;;;;;;;;;;;;5035418;28;19916;-76
2023/02/04 03:40:13;;;;;;;;;;;;;;;;;;5035443;28;19909;-75
2023/02/04 03:42:39;;;;;;;;;;;;;;;;;;5035213;28;19913;-75
2023/02/04 03:45:05;;;;;;;;;;;;;;;;;;5035459;28;19932;-76
2023/02/04 03:47:31;;;;;;;;;;;;;;;;;;5035325;28;20284;-74
2023/02/04 03:49:57;;;;;;;;;;;;;;;;;;5033899;28;20348;-75
2023/02/04 03:52:23;;;;;;;;;;;;;;;;;;5035183;28;19916;-75
2023/02/04 03:54:49;;;;;;;;;;;;;;;;;;5035082;28;20332;-75
2023/02/04 03:57:15;;;;;;;;;;;;;;;;;;5034965;28;20411;-75
2023/02/04 03:59:41;;;;;;;;;;;;;;;;;;5035286;28;20031;-74
2023/02/04 04:02:06;;;;;;;;;;;;;;;;;;5033573;28;19913;-75
2023/02/04 04:04:32;;;;;;;;;;;;;;;;;;5034891;28;19909;-75
2023/02/04 04:06:58;;;;;;;;;;;;;;;;;;5035261;28;19909;-75
2023/02/04 04:09:24;;;;;;;;;;;;;;;;;;5034801;28;19916;-75
2023/02/04 04:11:50;;;;;;;;;;;;;;;;;;5033503;28;19913;-75
2023/02/04 04:14:16;;;;;;;;;;;;;;;;;;5034589;28;19967;-74
2023/02/04 04:16:42;;;;;;;;;;;;;;;;;;5034630;28;19909;-76
2023/02/04 04:19:08;;;;;;;;;;;;;;;;;;5033307;28;20003;-75
2023/02/04 04:21:34;;;;;;;;;;;;;;;;;;5033201;28;19913;-75
2023/02/04 04:24:00;;;;;;;;;;;;;;;;;;5033229;28;19920;-75
2023/02/04 04:26:26;;;;;;;;;;;;;;;;;;5034543;28;19915;-76
2023/02/04 04:28:52;;;;;;;;;;;;;;;;;;5034024;28;20016;-74
2023/02/04 04:31:18;;;;;;;;;;;;;;;;;;5033119;28;19956;-75
2023/02/04 04:33:44;;;;;;;;;;;;;;;;;;5034718;28;20370;-75
2023/02/04 04:36:10;;;;;;;;;;;;;;;;;;5034484;28;19913;-76
2023/02/04 04:38:36;;;;;;;;;;;;;;;;;;5034234;28;19916;-75
2023/02/04 04:41:02;;;;;;;;;;;;;;;;;;5034132;28;19913;-76
2023/02/04 04:43:28;;;;;;;;;;;;;;;;;;5034128;28;19913;-75
2023/02/04 04:45:54;;;;;;;;;;;;;;;;;;5034107;28;19909;-76
2023/02/04 04:48:20;;;;;;;;;;;;;;;;;;5034335;28;20367;-75
2023/02/04 04:50:46;;;;;;;;;;;;;;;;;;5034053;28;20262;-75
2023/02/04 04:53:12;;;;;;;;;;;;;;;;;;5033991;28;19909;-76
2023/02/04 04:55:38;;;;;;;;;;;;;;;;;;5033903;28;19916;-74
2023/02/04 04:58:04;;;;;;;;;;;;;;;;;;5033953;28;19910;-76
2023/02/04 05:00:30;;;;;;;;;;;;;;;;;;5033853;28;20373;-75
2023/02/04 05:02:56;;;;;;;;;;;;;;;;;;5032553;28;19935;-75
2023/02/04 05:05:22;;;;;;;;;;;;;;;;;;5032546;28;19917;-75
2023/02/04 05:07:48;;;;;;;;;;;;;;;;;;5033809;28;19909;-76
2023/02/04 05:10:14;;;;;;;;;;;;;;;;;;5034089;28;20285;-75
2023/02/04 05:12:39;;;;;;;;;;;;;;;;;;5033780;28;19909;-75
2023/02/04 05:15:05;;;;;;;;;;;;;;;;;;5033619;28;19922;-74
2023/02/04 05:17:31;;;;;;;;;;;;;;;;;;5033747;28;19914;-75
2023/02/04 05:19:57;;;;;;;;;;;;;;;;;;5033869;28;19995;-77
2023/02/04 05:22:23;;;;;;;;;;;;;;;;;;5033722;28;19913;-74
2023/02/04 05:24:49;;;;;;;;;;;;;;;;;;5033634;28;19909;-75
2023/02/04 05:27:15;;;;;;;;;;;;;;;;;;5033873;28;19909;-75
2023/02/04 05:29:41;;;;;;;;;;;;;;;;;;5033634;28;19909;-75
2023/02/04 05:32:07;;;;;;;;;;;;;;;;;;5033857;28;20348;-75
2023/02/04 05:34:33;;;;;;;;;;;;;;;;;;5032318;28;20416;-75
2023/02/04 05:36:59;;;;;;;;;;;;;;;;;;5032262;28;19910;-75
2023/02/04 05:39:25;;;;;;;;;;;;;;;;;;5033493;28;19909;-75
2023/02/04 05:41:50;;;;;;;;;;;;;;;;;;5034548;28;19917;-74
2023/02/04 05:44:16;;;;;;;;;;;;;;;;;;5037426;28;20324;-75
2023/02/04 05:46:42;;;;;;;;;;;;;;;;;;5037474;28;20396;-75
2023/02/04 05:49:09;;;;;;;;;;;;;;;;;;5037450;28;19909;-75
2023/02/04 05:51:35;;;;;;;;;;;;;;;;;;5037388;28;20007;-75
2023/02/04 05:54:01;;;;;;;;;;;;;;;;;;5037448;28;20380;-75
2023/02/04 05:56:27;;;;;;;;;;;;;;;;;;5037433;28;19992;-74
2023/02/04 05:58:53;;;;;;;;;;;;;;;;;;5037438;28;20396;-75
2023/02/04 06:01:18;;;;;;;;;;;;;;;;;;5035851;28;19913;-75
2023/02/04 06:03:44;;;;;;;;;;;;;;;;;;5037312;28;20324;-74
2023/02/04 06:06:10;;;;;;;;;;;;;;;;;;5035798;28;20008;-75
2023/02/04 06:08:36;;;;;;;;;;;;;;;;;;5037548;28;20329;-75
2023/02/04 06:11:02;;;;;;;;;;;;;;;;;;5037330;28;19932;-75
2023/02/04 06:13:28;;;;;;;;;;;;;;;;;;5036968;28;19956;-76
2023/02/04 06:15:54;;;;;;;;;;;;;;;;;;5035664;28;19968;-75
2023/02/04 06:18:20;;;;;;;;;;;;;;;;;;5036880;28;19913;-75
2023/02/04 06:20:46;;;;;;;;;;;;;;;;;;5036742;28;20408;-75
2023/02/04 06:23:12;;;;;;;;;;;;;;;;;;5036823;28;19909;-75
2023/02/04 06:25:38;;;;;;;;;;;;;;;;;;5036936;28;19916;-75
2023/02/04 06:28:04;;;;;;;;;;;;;;;;;;5036795;28;20004;-75
2023/02/04 06:30:30;;;;;;;;;;;;;;;;;;5035349;28;19976;-76
2023/02/04 06:32:56;;;;;;;;;;;;;;;;;;5035290;28;19910;-75
2023/02/04 06:35:22;;;;;;;;;;;;;;;;;;5036582;28;19909;-76
2023/02/04 06:37:47;;;;;;;;;;;;;;;;;;5036516;28;20361;-75
2023/02/04 06:40:13;;;;;;;;;;;;;;;;;;5036508;28;19909;-74
2023/02/04 06:42:39;;;;;;;;;;;;;;;;;;5036345;28;19920;-75
2023/02/04 06:45:05;;;;;;;;;;;;;;;;;;5036542;28;19909;-75
2023/02/04 06:47:31;;;;;;;;;;;;;;;;;;5035030;28;19909;-76
2023/02/04 06:49:57;;;;;;;;;;;;;;;;;;5036279;28;19913;-74
2023/02/04 06:52:23;;;;;;;;;;;;;;;;;;5036397;28;19913;-75
2023/02/04 06:54:49;;;;;;;;;;;;;;;;;;5036232;28;19909;-75
2023/02/04 06:57:15;;;;;;;;;;;;;;;;;;5036096;28;19909;-75
2023/02/04 06:59:42;;;;;;;;;;;;;;;;;;5036107;28;19960;-75
2023/02/04 07:02:08;;;;;;;;;;;;;;;;;;5034657;28;19927;-75
2023/02/04 07:04:34;;;;;;;;;;;;;;;;;;5036012;28;19952;-75
2023/02/04 07:07:00;;;;;;;;;;;;;;;;;;5036065;28;19916;-75
2023/02/04 07:09:26;;;;;;;;;;;;;;;;;;5035885;28;19920;-75
2023/02/04 07:11:52;;;;;;;;;;;;;;;;;;5036104;28;20285;-75
2023/02/04 07:14:18;;;;;;;;;;;;;;;;;;5034290;28;20339;-75
2023/02/04 07:16:44;;;;;;;;;;;;;;;;;;5034545;28;19999;-74
2023/02/04 07:19:10;;;;;;;;;;;;;;;;;;5035769;28;20002;-74
2023/02/04 07:21:36;;;;;;;;;;;;;;;;;;5035703;28;19913;-76
2023/02/04 07:24:02;;;;;;;;;;;;;;;;;;5035701;28;19959;-74
2023/02/04 07:26:28;;;;;;;;;;;;;;;;;;5034337;28;19916;-75
2023/02/04 07:28:54;;;;;;;;;;;;;;;;;;5035765;28;19909;-75
2023/02/04 07:31:20;;;;;;;;;;;;;;;;;;5035562;28;19911;-75
2023/02/04 07:33:46;;;;;;;;;;;;;;;;;;5035602;28;19910;-76
2023/02/04 07:36:12;;;;;;;;;;;;;;;;;;5035429;28;19913;-75
2023/02/04 07:38:37;;;;;;;;;;;;;;;;;;5035568;28;19909;-76
2023/02/04 07:41:03;;;;;;;;;;;;;;;;;;5035401;28;19957;-75
2023/02/04 07:43:29;;;;;;;;;;;;;;;;;;5034020;28;19916;-75
2023/02/04 07:45:55;;;;;;;;;;;;;;;;;;5035283;28;19909;-74
2023/02/04 07:48:21;;;;;;;;;;;;;;;;;;5035232;28;20003;-76
2023/02/04 07:50:47;;;;;;;;;;;;;;;;;;5033862;28;19916;-75
2023/02/04 07:53:13;;;;;;;;;;;;;;;;;;5035131;28;19913;-75
2023/02/04 07:55:39;;;;;;;;;;;;;;;;;;5035135;28;20301;-75
2023/02/04 07:58:05;;;;;;;;;;;;;;;;;;5033744;28;19909;-75
2023/02/04 08:00:31;;;;;;;;;;;;;;;;;;5035349;28;20433;-75
2023/02/04 08:02:57;;;;;;;;;;;;;;;;;;5034668;28;20347;-75
2023/02/04 08:05:23;;;;;;;;;;;;;;;;;;5034520;28;19909;-74
2023/02/04 08:07:49;;;;;;;;;;;;;;;;;;5034871;28;19917;-74
2023/02/04 08:10:15;;;;;;;;;;;;;;;;;;5034797;28;19995;-75
2023/02/04 08:12:41;;;;;;;;;;;;;;;;;;5033463;28;19913;-75
2023/02/04 08:15:07;;;;;;;;;;;;;;;;;;5034497;28;19986;-74
2023/02/04 08:17:33;;;;;;;;;;;;;;;;;;5034632;28;20258;-74
2023/02/04 08:19:59;;;;;;;;;;;;;;;;;;5034573;28;19916;-74
2023/02/04 08:22:25;;;;;;;;;;;;;;;;;;5034450;28;19968;-74
2023/02/04 08:24:51;;;;;;;;;;;;;;;;;;5034972;28;19913;-74
2023/02/04 08:27:17;;;;;;;;;;;;;;;;;;5034460;28;19944;-75
2023/02/04 08:29:43;;;;;;;;;;;;;;;;;;5034366;28;19909;-74
2023/02/04 08:32:09;;;;;;;;;;;;;;;;;;5034565;28;19909;-74
2023/02/04 08:34:35;;;;;;;;;;;;;;;;;;5033018;28;19909;-74
2023/02/04 08:37:01;;;;;;;;;;;;;;;;;;5034248;28;19963;-73
2023/02/04 08:39:27;;;;;;;;;;;;;;;;;;5034278;28;19960;-74
2023/02/04 08:41:53;;;;;;;;;;;;;;;;;;5034136;28;19948;-75
2023/02/04 08:44:19;;;;;;;;;;;;;;;;;;5032910;28;19909;-74
2023/02/04 08:46:45;;;;;;;;;;;;;;;;;;5034126;28;19992;-74
2023/02/04 08:49:11;;;;;;;;;;;;;;;;;;5034226;28;19964;-74
2023/02/04 08:51:37;;;;;;;;;;;;;;;;;;5032810;28;19916;-74
2023/02/04 08:54:02;;;;;;;;;;;;;;;;;;5034002;28;19909;-74
2023/02/04 08:56:30;;;;;;;;;;;;;;;;;;5032627;28;19909;-75
2023/02/04 08:58:55;;;;;;;;;;;;;;;;;;5033964;28;19909;-74
2023/02/04 09:01:21;;;;;;;;;;;;;;;;;;5033763;28;19936;-74
2023/02/04 09:03:47;;;;;;;;;;;;;;;;;;5034147;28;19932;-75
2023/02/04 09:06:13;;;;;;;;;;;;;;;;;;5033872;28;20319;-74
2023/02/04 09:08:39;;;;;;;;;;;;;;;;;;5033875;28;19995;-74
2023/02/04 09:11:05;;;;;;;;;;;;;;;;;;5033733;28;19998;-74
2023/02/04 09:13:31;;;;;;;;;;;;;;;;;;5033664;28;19939;-75
2023/02/04 09:15:57;;;;;;;;;;;;;;;;;;5033799;28;20385;-75
2023/02/04 09:18:24;;;;;;;;;;;;;;;;;;5032410;28;20005;-75
2023/02/04 09:20:50;;;;;;;;;;;;;;;;;;5033985;28;19909;-75
2023/02/04 09:23:16;;;;;;;;;;;;;;;;;;5033800;28;19959;-76
2023/02/04 09:25:42;;;;;;;;;;;;;;;;;;5033671;28;19910;-74
2023/02/04 09:28:11;;;;;;;;;;;;;;;;;;5033617;28;19909;-73
2023/02/04 09:30:37;;;;;;;;;;;;;;;;;;5033354;28;20344;-74
2023/02/04 09:33:03;;;;;;;;;;;;;;;;;;5031220;28;19909;-75
2023/02/04 09:35:29;;;;;;;;;;;;;;;;;;5011497;28;19921;-74
2023/02/04 09:37:55;;;;;;;;;;;;;;;;;;5033018;28;19916;-76
2023/02/04 09:40:21;;;;;;;;;;;;;;;;;;5032460;28;19913;-75
2023/02/04 09:42:48;;;;;;;;;;;;;;;;;;5033672;28;20016;-75
2023/02/04 09:45:15;;;;;;;;;;;;;;;;;;5031974;28;19913;-76
2023/02/04 09:47:42;;;;;;;;;;;;;;;;;;5033106;28;19909;-75
2023/02/04 09:50:08;;;;;;;;;;;;;;;;;;5033507;28;20376;-76
2023/02/04 09:52:34;;;;;;;;;;;;;;;;;;5032252;28;19909;-76
2023/02/04 09:55:00;;;;;;;;;;;;;;;;;;5032941;28;19920;-76
2023/02/04 09:57:26;;;;;;;;;;;;;;;;;;5033478;28;19909;-76
2023/02/04 09:59:52;;;;;;;;;;;;;;;;;;5033805;28;19944;-76
2023/02/04 10:02:18;;;;;;;;;;;;;;;;;;5033569;28;19920;-77
2023/02/04 10:04:44;;;;;;;;;;;;;;;;;;5028391;28;19909;-75
2023/02/04 10:07:10;;;;;;;;;;;;;;;;;;5013650;28;19948;-75
2023/02/04 10:09:36;;;;;;;;;;;;;;;;;;5013807;28;19979;-75
2023/02/04 10:12:02;;;;;;;;;;;;;;;;;;5013910;28;19963;-75
2023/02/04 10:14:28;;;;;;;;;;;;;;;;;;5023216;28;19928;-75
2023/02/04 10:16:54;;;;;;;;;;;;;;;;;;5033434;28;19910;-77
2023/02/04 10:19:20;;;;;;;;;;;;;;;;;;5033524;28;19916;-75
2023/02/04 10:21:46;;;;;;;;;;;;;;;;;;5033115;28;20317;-77
2023/02/04 10:24:12;;;;;;;;;;;;;;;;;;5032921;28;19948;-75
2023/02/04 10:26:38;;;;;;;;;;;;;;;;;;5033645;28;20381;-75
2023/02/04 10:29:04;;;;;;;;;;;;;;;;;;5035457;28;19945;-75
2023/02/04 10:31:30;;;;;;;;;;;;;;;;;;5036539;28;20309;-75
2023/02/04 10:33:56;;;;;;;;;;;;;;;;;;5036560;28;19955;-77
2023/02/04 10:36:22;;;;;;;;;;;;;;;;;;5028015;28;19917;-76
2023/02/04 10:38:48;;;;;;;;;;;;;;;;;;5035564;28;20255;-75
2023/02/04 10:41:14;;;;;;;;;;;;;;;;;;5035275;28;20361;-76
2023/02/04 10:43:40;;;;;;;;;;;;;;;;;;5036226;28;20396;-75
2023/02/04 10:46:06;;;;;;;;;;;;;;;;;;5036813;28;19964;-75
2023/02/04 10:48:32;;;;;;;;;;;;;;;;;;5036166;28;19909;-75
2023/02/04 10:50:58;;;;;;;;;;;;;;;;;;5036197;28;19917;-75
2023/02/04 10:56:08;;;;;;;;;;;;;;;;;;5036304;28;19919;-76
2023/02/04 10:58:34;;;;;;;;;;;;;;;;;;5036147;28;19995;-73
2023/02/04 11:01:00;;;;;;;;;;;;;;;;;;5035864;28;20527;-75
2023/02/04 11:03:26;;;;;;;;;;;;;;;;;;5036215;28;19959;-74
2023/02/04 11:05:52;;;;;;;;;;;;;;;;;;5036026;28;19932;-75
2023/02/04 11:08:19;;;;;;;;;;;;;;;;;;5036275;28;20365;-73
2023/02/04 11:10:45;;;;;;;;;;;;;;;;;;5035902;28;19909;-74
2023/02/04 11:13:11;;;;;;;;;;;;;;;;;;5036021;28;19913;-74
2023/02/04 11:15:37;;;;;;;;;;;;;;;;;;5034084;28;19960;-74
2023/02/04 11:18:03;;;;;;;;;;;;;;;;;;5035847;28;19909;-75
2023/02/04 11:20:29;;;;;;;;;;;;;;;;;;5035683;28;20297;-75
2023/02/04 11:22:55;;;;;;;;;;;;;;;;;;5035987;28;19913;-75
2023/02/04 11:25:21;;;;;;;;;;;;;;;;;;5035689;28;19966;-75
2023/02/04 11:27:47;;;;;;;;;;;;;;;;;;5034348;28;19909;-73
2023/02/04 11:30:13;;;;;;;;;;;;;;;;;;5035571;28;20003;-74
2023/02/04 11:32:40;;;;;;;;;;;;;;;;;;5035814;28;19916;-75
2023/02/04 11:35:06;;;;;;;;;;;;;;;;;;5035528;28;20305;-75
2023/02/04 11:37:32;;;;;;;;;;;;;;;;;;5034124;28;19909;-74
2023/02/04 11:39:58;;;;;;;;;;;;;;;;;;5034343;28;19917;-75
2023/02/04 11:42:24;;;;;;;;;;;;;;;;;;5035235;28;19947;-76
2023/02/04 11:44:50;;;;;;;;;;;;;;;;;;5033791;28;19916;-74
2023/02/04 11:47:16;;;;;;;;;;;;;;;;;;5034417;28;19909;-75
2023/02/04 11:49:42;;;;;;;;;;;;;;;;;;5035182;28;19996;-76
2023/02/04 11:52:08;;;;;;;;;;;;;;;;;;5034036;28;20485;-74
2023/02/04 11:54:34;;;;;;;;;;;;;;;;;;5033066;28;19959;-75
2023/02/04 11:57:00;;;;;;;;;;;;;;;;;;5033199;28;19975;-74
2023/02/04 11:59:26;;;;;;;;;;;;;;;;;;5033051;28;20332;-75
2023/02/04 12:01:52;;;;;;;;;;;;;;;;;;5031704;28;20393;-74
2023/02/04 12:04:18;;;;;;;;;;;;;;;;;;5033067;28;19915;-75
2023/02/04 12:06:44;;;;;;;;;;;;;;;;;;5033195;28;19992;-73
2023/02/04 12:09:10;;;;;;;;;;;;;;;;;;5032928;28;20380;-74
2023/02/04 12:11:36;;;;;;;;;;;;;;;;;;5034303;28;19909;-74
2023/02/04 12:14:02;;;;;;;;;;;;;;;;;;5034453;28;19921;-75
2023/02/04 12:16:28;;;;;;;;;;;;;;;;;;5033145;28;20040;-74
2023/02/04 12:18:54;;;;;;;;;;;;;;;;;;5034697;28;19956;-74
2023/02/04 12:21:20;;;;;;;;;;;;;;;;;;5034504;28;19913;-76
2023/02/04 12:23:46;;;;;;;;;;;;;;;;;;5033278;28;19909;-76
2023/02/04 12:26:12;;;;;;;;;;;;;;;;;;5034516;28;20251;-75
2023/02/04 12:28:38;;;;;;;;;;;;;;;;;;5034740;28;19909;-75
2023/02/04 12:31:04;;;;;;;;;;;;;;;;;;5034475;28;20343;-76
2023/02/04 12:33:30;;;;;;;;;;;;;;;;;;5033124;28;20424;-74
2023/02/04 12:35:55;;;;;;;;;;;;;;;;;;5034326;28;19909;-75
2023/02/04 12:38:21;;;;;;;;;;;;;;;;;;5034305;28;19910;-76
2023/02/04 12:40:47;;;;;;;;;;;;;;;;;;5034208;28;19909;-75
2023/02/04 12:43:13;;;;;;;;;;;;;;;;;;5034479;28;19909;-75
2023/02/04 12:45:44;;;;;;;;;;;;;;;;;;5032880;28;19948;-75
2023/02/04 12:48:10;;;;;;;;;;;;;;;;;;5034481;28;20288;-75
2023/02/04 12:50:36;;;;;;;;;;;;;;;;;;5034244;28;20008;-74
2023/02/04 12:53:02;;;;;;;;;;;;;;;;;;5034106;28;19955;-75
2023/02/04 12:55:29;;;;;;;;;;;;;;;;;;5033989;28;19913;-75
2023/02/04 12:57:55;;;;;;;;;;;;;;;;;;5032721;28;20004;-74
2023/02/04 13:00:21;;;;;;;;;;;;;;;;;;5032693;28;20316;-75
2023/02/04 13:02:47;;;;;;;;;;;;;;;;;;5034086;28;19916;-74
2023/02/04 13:05:13;;;;;;;;;;;;;;;;;;5033916;28;19909;-74
2023/02/04 13:07:39;;;;;;;;;;;;;;;;;;5033932;28;20273;-75
2023/02/04 13:10:05;;;;;;;;;;;;;;;;;;5033817;28;20004;-74
2023/02/04 13:12:31;;;;;;;;;;;;;;;;;;5033941;28;20403;-74
2023/02/04 13:14:57;;;;;;;;;;;;;;;;;;5032258;28;20405;-75
2023/02/04 13:17:23;;;;;;;;;;;;;;;;;;5033743;28;19960;-74
2023/02/04 13:19:49;;;;;;;;;;;;;;;;;;5033696;28;19910;-75
2023/02/04 13:22:15;;;;;;;;;;;;;;;;;;5033902;28;19913;-74
2023/02/04 13:24:41;;;;;;;;;;;;;;;;;;5033676;28;19920;-74
2023/02/04 13:27:06;;;;;;;;;;;;;;;;;;5033677;28;19999;-74
2023/02/04 13:29:32;;;;;;;;;;;;;;;;;;5033653;28;19917;-74
2023/02/04 13:31:59;;;;;;;;;;;;;;;;;;5033774;28;19909;-74
2023/02/04 13:34:25;;;;;;;;;;;;;;;;;;5033743;28;19955;-75
2023/02/04 13:36:50;;;;;;;;;;;;;;;;;;5033409;28;19920;-76
2023/02/04 13:39:16;;;;;;;;;;;;;;;;;;5033526;28;19917;-75
2023/02/04 13:41:42;;;;;;;;;;;;;;;;;;5033464;28;19913;-75
2023/02/04 13:44:08;;;;;;;;;;;;;;;;;;5033705;28;20293;-74
2023/02/04 13:46:34;;;;;;;;;;;;;;;;;;5033508;28;20010;-74
2023/02/04 13:49:00;;;;;;;;;;;;;;;;;;5033750;28;20285;-75
2023/02/04 13:51:26;;;;;;;;;;;;;;;;;;5033403;28;19909;-75
2023/02/04 13:53:52;;;;;;;;;;;;;;;;;;5031929;28;19963;-73
2023/02/04 13:56:18;;;;;;;;;;;;;;;;;;5033637;28;20429;-75
2023/02/04 13:58:44;;;;;;;;;;;;;;;;;;5033352;28;19972;-74
2023/02/04 14:01:10;;;;;;;;;;;;;;;;;;5033392;28;19919;-75
2023/02/04 14:03:36;;;;;;;;;;;;;;;;;;5036753;28;19909;-74
2023/02/04 14:06:02;;;;;;;;;;;;;;;;;;5035838;28;19909;-74
2023/02/04 14:08:28;;;;;;;;;;;;;;;;;;5037050;28;20008;-75
2023/02/04 14:10:54;;;;;;;;;;;;;;;;;;5037267;28;19917;-75
2023/02/04 14:13:20;;;;;;;;;;;;;;;;;;5037017;28;19909;-75
2023/02/04 14:15:46;;;;;;;;;;;;;;;;;;5036532;28;19928;-74
2023/02/04 14:18:11;;;;;;;;;;;;;;;;;;5037131;28;19962;-74
2023/02/04 14:20:37;;;;;;;;;;;;;;;;;;5036864;28;19992;-74
2023/02/04 14:23:04;;;;;;;;;;;;;;;;;;5037036;28;19913;-74
2023/02/04 14:25:29;;;;;;;;;;;;;;;;;;5036826;28;19916;-74
2023/02/04 14:27:56;;;;;;;;;;;;;;;;;;5036769;28;20294;-75
2023/02/04 14:30:22;;;;;;;;;;;;;;;;;;5036690;28;19909;-75
2023/02/04 14:32:48;;;;;;;;;;;;;;;;;;5036712;28;19908;-74
2023/02/04 14:35:13;;;;;;;;;;;;;;;;;;5036771;28;19910;-75
2023/02/04 14:37:39;;;;;;;;;;;;;;;;;;5036650;28;20289;-74
2023/02/04 14:40:05;;;;;;;;;;;;;;;;;;5036959;28;19916;-75
2023/02/04 14:42:31;;;;;;;;;;;;;;;;;;5036772;28;19975;-73
2023/02/04 14:44:57;;;;;;;;;;;;;;;;;;5036473;28;19909;-75
2023/02/04 14:47:23;;;;;;;;;;;;;;;;;;5036426;28;19909;-75
2023/02/04 14:49:49;;;;;;;;;;;;;;;;;;5036392;28;19910;-74
2023/02/04 14:52:15;;;;;;;;;;;;;;;;;;5036403;28;19995;-75
2023/02/04 14:54:41;;;;;;;;;;;;;;;;;;5036299;28;20376;-73
2023/02/04 14:57:10;;;;;;;;;;;;;;;;;;5034879;28;19915;-74
2023/02/04 14:59:36;;;;;;;;;;;;;;;;;;5036556;28;19913;-75
2023/02/04 15:02:02;;;;;;;;;;;;;;;;;;5036405;28;19936;-74
2023/02/04 15:04:28;;;;;;;;;;;;;;;;;;5036064;28;20365;-74
2023/02/04 15:06:56;;;;;;;;;;;;;;;;;;5036077;28;19916;-74
2023/02/04 15:09:22;;;;;;;;;;;;;;;;;;5036255;28;19909;-74
2023/02/04 15:11:48;;;;;;;;;;;;;;;;;;5035959;28;20384;-74
2023/02/04 15:14:14;;;;;;;;;;;;;;;;;;5035689;28;20007;-73
2023/02/04 15:16:42;;;;;;;;;;;;;;;;;;5035965;28;19909;-74
2023/02/04 15:19:08;;;;;;;;;;;;;;;;;;5034546;28;19910;-75
2023/02/04 15:21:36;;;;;;;;;;;;;;;;;;5035169;28;20454;-74
2023/02/04 15:24:01;;;;;;;;;;;;;;;;;;5034431;28;19913;-74
2023/02/04 15:26:27;;;;;;;;;;;;;;;;;;5035678;28;19955;-74
2023/02/04 15:28:56;;;;;;;;;;;;;;;;;;5035691;28;19916;-75
2023/02/04 15:31:22;;;;;;;;;;;;;;;;;;5035575;28;19910;-74
2023/02/04 15:33:48;;;;;;;;;;;;;;;;;;5035556;28;19975;-74
2023/02/04 15:36:14;;;;;;;;;;;;;;;;;;5034232;28;20254;-75
2023/02/04 15:38:40;;;;;;;;;;;;;;;;;;5034235;28;19941;-75
2023/02/04 15:41:06;;;;;;;;;;;;;;;;;;5035557;28;19909;-74
2023/02/04 15:43:32;;;;;;;;;;;;;;;;;;5035443;28;20004;-74
2023/02/04 15:45:58;;;;;;;;;;;;;;;;;;5034050;28;20010;-74
2023/02/04 15:48:24;;;;;;;;;;;;;;;;;;5035468;28;19932;-76
2023/02/04 15:50:50;;;;;;;;;;;;;;;;;;5035213;28;20024;-75
2023/02/04 15:53:16;;;;;;;;;;;;;;;;;;5035286;28;19944;-74
2023/02/04 15:55:42;;;;;;;;;;;;;;;;;;5035181;28;20332;-74
2023/02/04 15:58:08;;;;;;;;;;;;;;;;;;5035068;28;20000;-75
2023/02/04 16:00:34;;;;;;;;;;;;;;;;;;5033758;28;19917;-73
2023/02/04 16:03:00;;;;;;;;;;;;;;;;;;5034896;28;19913;-74
2023/02/04 16:05:26;;;;;;;;;;;;;;;;;;5035226;28;20003;-75
2023/02/04 16:07:52;;;;;;;;;;;;;;;;;;5034842;28;20369;-75
2023/02/04 16:10:18;;;;;;;;;;;;;;;;;;5034911;28;19935;-74
2023/02/04 16:12:44;;;;;;;;;;;;;;;;;;5034760;28;19962;-74
2023/02/04 16:15:10;;;;;;;;;;;;;;;;;;5034537;28;19964;-74
2023/02/04 16:17:35;;;;;;;;;;;;;;;;;;5034585;28;19982;-75
2023/02/04 16:20:02;;;;;;;;;;;;;;;;;;5033394;28;20403;-73
2023/02/04 16:22:28;;;;;;;;;;;;;;;;;;5034557;28;20301;-75
2023/02/04 16:24:54;;;;;;;;;;;;;;;;;;5034011;28;19909;-75
2023/02/04 16:27:20;;;;;;;;;;;;;;;;;;5034939;28;19916;-74
2023/02/04 16:29:46;;;;;;;;;;;;;;;;;;5034475;28;19995;-75
2023/02/04 16:32:12;;;;;;;;;;;;;;;;;;5034504;28;19935;-74
2023/02/04 16:34:38;;;;;;;;;;;;;;;;;;5034585;28;19964;-75
2023/02/04 16:37:03;;;;;;;;;;;;;;;;;;5034316;28;19913;-74
2023/02/04 16:39:29;;;;;;;;;;;;;;;;;;5034504;28;19963;-75